createdAt,value
2018-07-27T00:01:19.269Z,98251.92
2018-07-27T00:03:47.787Z,98251.52
2018-07-27T00:06:16.510Z,98256.36
2018-07-27T00:08:45.293Z,98255.83
2018-07-27T00:11:13.826Z,98255.83
2018-07-27T00:13:42.438Z,98253.11
2018-07-27T00:16:11.050Z,98255.41
2018-07-27T00:18:39.738Z,98250.77
2018-07-27T00:21:08.418Z,98254.52
2018-07-27T00:23:37.053Z,98250.55
2018-07-27T00:26:05.732Z,98248.11
2018-07-27T00:28:34.223Z,98245.51
2018-07-27T00:31:02.706Z,98241.63
2018-07-27T00:33:31.255Z,98237.09
2018-07-27T00:36:00.080Z,98241.37
2018-07-27T00:38:28.605Z,98241.08
2018-07-27T00:40:57.269Z,98239.27
2018-07-27T00:43:26.302Z,98237.91
2018-07-27T00:45:54.971Z,98238.06
2018-07-27T00:48:23.490Z,98234.40
2018-07-27T00:50:52.183Z,98235.75
2018-07-27T00:53:20.864Z,98242.82
2018-07-27T00:55:49.441Z,98244.59
2018-07-27T00:58:18.006Z,98242.28
2018-07-27T01:00:46.612Z,98245.69
2018-07-27T01:03:15.271Z,98244.44
2018-07-27T01:05:43.951Z,98245.23
2018-07-27T01:08:12.492Z,98242.61
2018-07-27T01:10:41.382Z,98244.88
2018-07-27T01:13:10.185Z,98244.69
2018-07-27T01:15:39.223Z,98239.66
2018-07-27T01:18:08.002Z,98239.09
2018-07-27T01:20:36.611Z,98239.45
2018-07-27T01:23:05.314Z,98243.81
2018-07-27T01:25:33.941Z,98240.36
2018-07-27T01:28:02.470Z,98238.95
2018-07-27T01:30:30.959Z,98236.63
2018-07-27T01:32:59.696Z,98229.20
2018-07-27T01:35:28.479Z,98231.50
2018-07-27T01:37:57.238Z,98235.44
2018-07-27T01:40:25.809Z,98225.59
2018-07-27T01:42:54.427Z,98230.03
2018-07-27T01:45:23.353Z,98232.96
2018-07-27T01:47:52.019Z,98229.02
2018-07-27T01:50:20.542Z,98223.09
2018-07-27T01:52:49.061Z,98228.34
2018-07-27T02:02:42.391Z,98218.77
2018-07-27T02:05:10.959Z,98225.12
2018-07-27T02:07:39.880Z,98229.36
2018-07-27T02:10:08.456Z,98232.86
2018-07-27T02:12:36.991Z,98226.78
2018-07-27T02:15:06.939Z,98222.45
2018-07-27T02:17:35.484Z,98224.38
2018-07-27T02:20:08.226Z,98225.34
2018-07-27T02:22:37.205Z,98221.94
2018-07-27T02:25:06.371Z,98229.64
2018-07-27T02:27:34.934Z,98230.20
2018-07-27T02:30:03.484Z,98222.64
2018-07-27T02:32:32.023Z,98222.12
2018-07-27T02:35:00.718Z,98223.16
2018-07-27T02:37:29.374Z,98224.44
2018-07-27T02:39:57.855Z,98226.54
2018-07-27T02:42:26.390Z,98221.38
2018-07-27T02:44:54.982Z,98221.50
2018-07-27T02:47:23.552Z,98222.94
2018-07-27T02:49:52.228Z,98211.91
2018-07-27T02:52:21.078Z,98211.06
2018-07-27T02:54:50.395Z,98208.09
2018-07-27T02:57:19.112Z,98208.52
2018-07-27T02:59:47.724Z,98211.74
2018-07-27T03:02:16.282Z,98206.67
2018-07-27T03:04:44.806Z,98213.13
2018-07-27T03:07:13.442Z,98204.97
2018-07-27T03:09:42.030Z,98212.05
2018-07-27T03:12:10.535Z,98205.44
2018-07-27T03:14:39.116Z,98208.70
2018-07-27T03:17:07.961Z,98202.57
2018-07-27T03:19:36.591Z,98204.63
2018-07-27T03:22:06.150Z,98204.97
2018-07-27T03:24:34.707Z,98205.43
2018-07-27T03:27:03.536Z,98207.06
2018-07-27T03:29:32.150Z,98207.69
2018-07-27T03:32:00.677Z,98205.46
2018-07-27T03:34:29.206Z,98207.72
2018-07-27T03:36:58.035Z,98213.55
2018-07-27T03:39:26.551Z,98220.48
2018-07-27T03:41:55.138Z,98213.72
2018-07-27T03:44:23.695Z,98217.77
2018-07-27T03:46:52.212Z,98213.02
2018-07-27T03:49:20.835Z,98216.42
2018-07-27T03:51:49.326Z,98213.55
2018-07-27T03:54:17.859Z,98219.53
2018-07-27T03:56:46.450Z,98221.95
2018-07-27T03:59:15.052Z,98223.02
2018-07-27T04:01:43.699Z,98224.23
2018-07-27T04:04:12.276Z,98232.41
2018-07-27T04:06:40.754Z,98232.55
2018-07-27T04:09:09.894Z,98231.37
2018-07-27T04:11:38.837Z,98236.92
2018-07-27T04:14:07.816Z,98241.42
2018-07-27T04:16:36.341Z,98239.06
2018-07-27T04:19:04.947Z,98242.83
2018-07-27T04:21:33.558Z,98243.61
2018-07-27T04:24:02.335Z,98240.41
2018-07-27T04:26:30.955Z,98246.84
2018-07-27T04:28:59.568Z,98244.27
2018-07-27T04:31:28.290Z,98242.19
2018-07-27T04:33:57.445Z,98239.00
2018-07-27T04:36:25.983Z,98239.63
2018-07-27T04:38:55.209Z,98242.34
2018-07-27T04:41:23.818Z,98248.73
2018-07-27T04:43:52.482Z,98240.79
2018-07-27T04:46:21.133Z,98241.86
2018-07-27T04:48:49.630Z,98242.82
2018-07-27T04:51:18.187Z,98245.02
2018-07-27T04:53:46.847Z,98246.05
2018-07-27T04:56:15.399Z,98243.34
2018-07-27T04:58:43.847Z,98253.10
2018-07-27T05:01:12.398Z,98250.00
2018-07-27T05:03:40.934Z,98253.44
2018-07-27T05:06:09.426Z,98257.55
2018-07-27T05:08:43.528Z,98253.75
2018-07-27T05:11:12.069Z,98257.11
2018-07-27T05:13:40.599Z,98255.37
2018-07-27T05:16:09.424Z,98250.16
2018-07-27T05:18:38.102Z,98252.83
2018-07-27T05:21:06.964Z,98251.34
2018-07-27T05:23:35.533Z,98245.07
2018-07-27T05:26:04.338Z,98254.44
2018-07-27T05:28:32.850Z,98258.19
2018-07-27T05:31:01.435Z,98262.55
2018-07-27T05:33:30.054Z,98253.64
2018-07-27T05:35:58.611Z,98263.92
2018-07-27T05:38:27.521Z,98262.75
2018-07-27T05:40:56.222Z,98274.11
2018-07-27T05:43:24.722Z,98273.22
2018-07-27T05:45:53.275Z,98277.02
2018-07-27T05:48:21.835Z,98270.25
2018-07-27T05:50:50.513Z,98270.13
2018-07-27T05:53:19.130Z,98263.70
2018-07-27T05:55:47.803Z,98267.48
2018-07-27T05:58:17.404Z,98261.55
2018-07-27T06:00:46.008Z,98262.42
2018-07-27T06:03:15.374Z,98255.87
2018-07-27T06:05:43.942Z,98264.91
2018-07-27T06:08:12.398Z,98263.13
2018-07-27T06:10:41.082Z,98259.39
2018-07-27T06:13:09.790Z,98259.14
2018-07-27T06:15:38.302Z,98258.23
2018-07-27T06:18:06.908Z,98260.39
2018-07-27T06:20:37.083Z,98262.50
2018-07-27T06:23:07.111Z,98265.67
2018-07-27T06:25:35.715Z,98264.56
2018-07-27T06:28:04.353Z,98272.83
2018-07-27T06:30:33.103Z,98275.83
2018-07-27T06:33:01.639Z,98271.75
2018-07-27T06:35:30.101Z,98272.59
2018-07-27T06:37:58.606Z,98269.88
2018-07-27T06:40:27.101Z,98265.38
2018-07-27T06:42:55.830Z,98269.14
2018-07-27T06:45:24.438Z,98267.32
2018-07-27T06:47:53.091Z,98276.91
2018-07-27T06:50:21.983Z,98273.70
2018-07-27T06:52:50.561Z,98268.94
2018-07-27T06:55:19.140Z,98273.03
2018-07-27T06:57:47.755Z,98271.61
2018-07-27T07:00:16.331Z,98271.78
2018-07-27T07:02:45.129Z,98270.80
2018-07-27T07:05:13.665Z,98269.73
2018-07-27T07:07:42.239Z,98266.13
2018-07-27T07:10:10.945Z,98265.51
2018-07-27T07:12:39.579Z,98269.96
2018-07-27T07:15:09.150Z,98269.31
2018-07-27T07:17:37.710Z,98270.41
2018-07-27T07:20:08.038Z,98274.02
2018-07-27T07:22:36.771Z,98266.79
2018-07-27T07:25:05.448Z,98266.95
2018-07-27T07:27:34.123Z,98264.10
2018-07-27T07:30:02.856Z,98264.13
2018-07-27T07:32:31.354Z,98258.45
2018-07-27T07:34:59.819Z,98255.87
2018-07-27T07:37:28.409Z,98258.78
2018-07-27T07:39:56.957Z,98255.09
2018-07-27T07:42:25.514Z,98252.12
2018-07-27T07:44:54.188Z,98256.97
2018-07-27T07:47:23.126Z,98250.48
2018-07-27T07:49:51.710Z,98251.45
2018-07-27T07:52:20.363Z,98250.23
2018-07-27T07:54:48.878Z,98246.70
2018-07-27T07:57:17.347Z,98242.92
2018-07-27T07:59:45.822Z,98237.51
2018-07-27T08:02:14.479Z,98238.32
2018-07-27T08:04:43.000Z,98239.83
2018-07-27T08:07:11.518Z,98238.11
2018-07-27T08:09:40.092Z,98241.42
2018-07-27T08:12:08.686Z,98237.18
2018-07-27T08:14:37.592Z,98228.48
2018-07-27T08:17:06.612Z,98226.03
2018-07-27T08:19:35.091Z,98225.66
2018-07-27T08:22:03.647Z,98221.66
2018-07-27T08:24:32.171Z,98223.54
2018-07-27T08:27:01.630Z,98221.58
2018-07-27T08:29:31.443Z,98221.78
2018-07-27T08:32:00.592Z,98221.30
2018-07-27T08:34:29.187Z,98223.49
2018-07-27T08:36:57.819Z,98220.57
2018-07-27T08:39:28.565Z,98219.15
2018-07-27T08:41:57.215Z,98223.09
2018-07-27T08:44:29.929Z,98224.41
2018-07-27T08:46:58.558Z,98223.20
2018-07-27T08:49:27.046Z,98215.83
2018-07-27T08:51:55.679Z,98209.66
2018-07-27T08:54:24.217Z,98209.70
2018-07-27T08:56:52.803Z,98207.77
2018-07-27T08:59:21.370Z,98205.78
2018-07-27T09:01:50.048Z,98205.71
2018-07-27T09:04:18.645Z,98200.84
2018-07-27T09:06:47.105Z,98201.77
2018-07-27T09:09:16.802Z,98203.33
2018-07-27T09:11:45.280Z,98199.65
2018-07-27T09:14:13.868Z,98198.36
2018-07-27T09:16:42.514Z,98200.06
2018-07-27T09:19:11.285Z,98199.55
2018-07-27T09:21:40.579Z,98191.72
2018-07-27T09:24:09.149Z,98193.54
2018-07-27T09:26:37.815Z,98189.81
2018-07-27T09:29:06.395Z,98190.72
2018-07-27T09:31:34.921Z,98184.72
2018-07-27T09:34:03.473Z,98183.02
2018-07-27T09:36:32.033Z,98183.53
2018-07-27T09:39:00.661Z,98176.08
2018-07-27T09:41:29.170Z,98178.34
2018-07-27T09:43:57.900Z,98177.94
2018-07-27T09:46:26.723Z,98174.12
2018-07-27T09:48:55.935Z,98178.69
2018-07-27T09:51:25.272Z,98180.64
2018-07-27T09:53:53.927Z,98180.52
2018-07-27T09:56:22.380Z,98179.55
2018-07-27T09:58:50.955Z,98170.55
2018-07-27T10:01:26.059Z,98174.28
2018-07-27T10:03:55.548Z,98169.58
2018-07-27T10:06:24.086Z,98158.19
2018-07-27T10:08:52.612Z,98159.69
2018-07-27T10:11:21.568Z,98163.16
2018-07-27T10:13:50.082Z,98161.14
2018-07-27T10:16:18.707Z,98162.77
2018-07-27T10:18:47.681Z,98166.09
2018-07-27T10:21:16.430Z,98168.48
2018-07-27T10:23:44.945Z,98161.95
2018-07-27T10:26:13.575Z,98156.22
2018-07-27T10:28:42.218Z,98160.50
2018-07-27T10:31:10.803Z,98160.86
2018-07-27T10:33:39.398Z,98165.05
2018-07-27T10:36:08.004Z,98157.25
2018-07-27T10:38:36.901Z,98151.23
2018-07-27T10:41:05.937Z,98158.33
2018-07-27T10:43:34.512Z,98159.92
2018-07-27T10:46:03.726Z,98151.99
2018-07-27T10:48:32.287Z,98143.38
2018-07-27T10:51:00.830Z,98146.47
2018-07-27T10:53:29.318Z,98140.00
2018-07-27T10:55:57.878Z,98143.80
2018-07-27T10:58:26.404Z,98140.41
2018-07-27T11:00:55.035Z,98138.81
2018-07-27T11:03:23.767Z,98130.94
2018-07-27T11:05:52.270Z,98132.16
2018-07-27T11:08:20.714Z,98121.44
2018-07-27T11:10:49.229Z,98121.67
2018-07-27T11:13:17.688Z,98118.33
2018-07-27T11:15:46.286Z,98123.83
2018-07-27T11:18:14.741Z,98115.92
2018-07-27T11:20:43.234Z,98119.85
2018-07-27T11:23:11.707Z,98113.00
2018-07-27T11:25:40.278Z,98116.23
2018-07-27T11:28:09.139Z,98104.97
2018-07-27T11:30:37.725Z,98103.17
2018-07-27T11:33:06.535Z,98100.91
2018-07-27T11:35:35.266Z,98101.50
2018-07-27T11:38:03.756Z,98099.28
2018-07-27T11:40:32.348Z,98085.17
2018-07-27T11:43:00.938Z,98090.91
2018-07-27T11:45:29.422Z,98090.02
2018-07-27T11:47:58.017Z,98089.38
2018-07-27T11:50:26.558Z,98083.86
2018-07-27T11:52:55.138Z,98086.05
2018-07-27T11:55:23.711Z,98083.85
2018-07-27T11:57:52.212Z,98076.59
2018-07-27T12:00:20.757Z,98070.98
2018-07-27T12:02:49.318Z,98066.88
2018-07-27T12:05:17.885Z,98068.44
2018-07-27T12:07:46.347Z,98064.48
2018-07-27T12:10:14.929Z,98062.72
2018-07-27T12:12:43.622Z,98060.66
2018-07-27T12:15:12.304Z,98061.48
2018-07-27T12:17:40.686Z,98054.99
2018-07-27T12:20:09.111Z,98056.45
2018-07-27T12:22:40.250Z,98049.95
2018-07-27T12:25:08.894Z,98055.60
2018-07-27T12:27:37.358Z,98047.42
2018-07-27T12:30:06.347Z,98044.56
2018-07-27T12:32:34.911Z,98043.91
2018-07-27T12:35:04.052Z,98032.73
2018-07-27T12:37:32.917Z,98046.67
2018-07-27T12:40:01.493Z,98049.83
2018-07-27T12:42:30.112Z,98038.39
2018-07-27T12:44:58.666Z,98046.52
2018-07-27T12:47:27.186Z,98027.61
2018-07-27T12:49:55.632Z,98024.61
2018-07-27T12:52:24.252Z,98027.30
2018-07-27T12:54:52.974Z,98027.77
2018-07-27T12:57:21.663Z,98020.47
2018-07-27T12:59:50.277Z,98017.44
2018-07-27T13:02:19.056Z,98019.22
2018-07-27T13:04:47.867Z,98013.82
2018-07-27T13:07:16.399Z,98016.99
2018-07-27T13:09:44.916Z,98010.17
2018-07-27T13:12:13.546Z,97995.91
2018-07-27T13:14:44.640Z,98006.14
2018-07-27T13:17:13.088Z,98005.59
2018-07-27T13:19:41.745Z,97995.62
2018-07-27T13:22:10.296Z,97999.49
2018-07-27T13:25:03.531Z,97991.86
2018-07-27T13:27:07.728Z,97985.20
2018-07-27T13:29:36.261Z,97990.13
2018-07-27T13:32:04.867Z,97990.67
2018-07-27T13:37:06.858Z,97976.09
2018-07-27T13:39:35.945Z,97978.38
2018-07-27T13:42:05.545Z,97984.66
2018-07-27T13:44:35.097Z,97987.75
2018-07-27T13:47:04.670Z,97975.23
2018-07-27T13:49:33.388Z,97969.72
2018-07-27T13:52:02.266Z,97963.33
2018-07-27T13:54:31.933Z,97965.69
2018-07-27T13:57:00.869Z,97953.41
2018-07-27T13:59:29.494Z,97953.27
2018-07-27T14:01:58.207Z,97956.06
2018-07-27T14:04:26.829Z,97947.22
2018-07-27T14:06:56.535Z,97961.70
2018-07-27T14:09:25.138Z,97957.06
2018-07-27T14:11:53.769Z,97950.04
2018-07-27T14:16:49.829Z,97952.50
2018-07-27T14:19:22.833Z,97958.69
2018-07-27T14:21:51.431Z,97957.74
2018-07-27T14:24:20.406Z,97964.25
2018-07-27T14:26:49.249Z,97959.64
2018-07-27T14:29:17.793Z,97957.02
2018-07-27T14:31:46.245Z,97958.60
2018-07-27T14:34:14.746Z,97953.59
2018-07-27T14:36:43.307Z,97951.16
2018-07-27T14:39:13.686Z,97944.60
2018-07-27T14:41:42.662Z,97948.83
2018-07-27T14:44:11.223Z,97950.97
2018-07-27T14:46:40.134Z,97949.59
2018-07-27T14:49:12.226Z,97953.75
2018-07-27T14:51:41.489Z,97946.11
2018-07-27T14:54:11.870Z,97936.75
2018-07-27T14:56:41.232Z,97942.99
2018-07-27T14:59:10.435Z,97936.13
2018-07-27T15:01:39.779Z,97934.22
2018-07-27T15:04:09.045Z,97935.61
2018-07-27T15:06:38.072Z,97934.34
2018-07-27T15:09:09.778Z,97927.83
2018-07-27T15:11:38.280Z,97928.82
2018-07-27T15:14:06.867Z,97930.36
2018-07-27T15:16:35.395Z,97928.78
2018-07-27T15:19:04.095Z,97927.50
2018-07-27T15:21:32.663Z,97917.02
2018-07-27T15:24:01.258Z,97911.08
2018-07-27T15:26:29.964Z,97914.64
2018-07-27T15:28:58.472Z,97923.34
2018-07-27T15:31:27.070Z,97924.17
2018-07-27T15:33:55.774Z,97921.63
2018-07-27T15:36:24.409Z,97918.79
2018-07-27T15:38:52.936Z,97912.33
2018-07-27T15:41:21.592Z,97912.66
2018-07-27T15:43:50.166Z,97910.59
2018-07-27T15:46:18.713Z,97907.79
2018-07-27T15:48:47.229Z,97899.20
2018-07-27T15:51:15.804Z,97895.76
2018-07-27T15:53:44.309Z,97894.79
2018-07-27T15:56:12.832Z,97897.32
2018-07-27T15:58:41.482Z,97898.09
2018-07-27T16:01:10.025Z,97887.84
2018-07-27T16:06:18.197Z,97883.24
2018-07-27T16:08:47.091Z,97883.56
2018-07-27T16:11:15.618Z,97880.88
2018-07-27T16:13:44.123Z,97872.55
2018-07-27T16:16:12.622Z,97872.56
2018-07-27T16:18:41.524Z,97876.44
2018-07-27T16:21:10.062Z,97873.53
2018-07-27T16:23:38.572Z,97861.00
2018-07-27T16:26:07.228Z,97864.35
2018-07-27T16:28:35.727Z,97862.71
2018-07-27T16:31:04.263Z,97855.72
2018-07-27T16:33:32.806Z,97855.78
2018-07-27T16:36:01.397Z,97853.55
2018-07-27T16:38:29.929Z,97857.48
2018-07-27T16:40:58.698Z,97857.78
2018-07-27T16:43:27.218Z,97861.09
2018-07-27T16:45:55.851Z,97858.68
2018-07-27T16:48:24.342Z,97859.72
2018-07-27T16:50:52.869Z,97851.09
2018-07-27T16:53:21.507Z,97850.28
2018-07-27T16:55:49.975Z,97850.70
2018-07-27T16:58:18.558Z,97847.39
2018-07-27T17:00:47.090Z,97848.95
2018-07-27T17:03:15.635Z,97847.04
2018-07-27T17:05:44.094Z,97846.67
2018-07-27T17:08:12.590Z,97844.63
2018-07-27T17:10:41.182Z,97839.34
2018-07-27T17:13:09.739Z,97850.45
2018-07-27T17:15:38.301Z,97842.30
2018-07-27T17:18:06.860Z,97841.92
2018-07-27T17:20:35.398Z,97838.88
2018-07-27T17:23:03.967Z,97841.84
2018-07-27T17:25:32.541Z,97836.68
2018-07-27T17:28:01.079Z,97835.59
2018-07-27T17:30:29.649Z,97834.72
2018-07-27T17:32:58.400Z,97835.12
2018-07-27T17:35:27.298Z,97833.33
2018-07-27T17:37:55.859Z,97823.98
2018-07-27T17:40:24.416Z,97820.03
2018-07-27T17:42:53.188Z,97811.64
2018-07-27T17:45:21.771Z,97811.09
2018-07-27T17:47:50.363Z,97805.77
2018-07-27T17:50:18.832Z,97804.65
2018-07-27T17:52:47.310Z,97806.27
2018-07-27T17:55:15.769Z,97804.05
2018-07-27T17:57:44.281Z,97799.39
2018-07-27T18:00:12.739Z,97805.16
2018-07-27T18:02:41.229Z,97801.03
2018-07-27T18:05:09.707Z,97792.23
2018-07-27T18:07:38.303Z,97805.91
2018-07-27T18:10:06.798Z,97802.07
2018-07-27T18:12:35.374Z,97802.16
2018-07-27T18:15:03.934Z,97817.66
2018-07-27T18:17:32.433Z,97808.91
2018-07-27T18:20:01.018Z,97807.72
2018-07-27T18:22:29.574Z,97813.48
2018-07-27T18:24:58.202Z,97815.95
2018-07-27T18:27:26.703Z,97822.27
2018-07-27T18:29:55.325Z,97822.17
2018-07-27T18:32:24.447Z,97822.59
2018-07-27T18:34:52.901Z,97825.52
2018-07-27T18:37:21.606Z,97825.62
2018-07-27T18:39:50.217Z,97822.95
2018-07-27T18:42:18.803Z,97825.04
2018-07-27T18:44:51.534Z,97820.12
2018-07-27T18:47:20.046Z,97824.34
2018-07-27T18:49:48.535Z,97823.85
2018-07-27T18:52:17.127Z,97824.70
2018-07-27T18:54:45.620Z,97817.82
2018-07-27T18:57:14.170Z,97824.16
2018-07-27T18:59:42.715Z,97815.55
2018-07-27T19:02:11.255Z,97822.98
2018-07-27T19:04:39.782Z,97829.03
2018-07-27T19:07:08.352Z,97828.19
2018-07-27T19:09:36.894Z,97835.57
2018-07-27T19:12:05.429Z,97829.73
2018-07-27T19:14:33.918Z,97839.32
2018-07-27T19:17:02.431Z,97837.36
2018-07-27T19:19:30.996Z,97836.41
2018-07-27T19:21:59.574Z,97835.20
2018-07-27T19:24:28.177Z,97834.20
2018-07-27T19:26:57.168Z,97840.97
2018-07-27T19:29:25.695Z,97843.63
2018-07-27T19:31:54.389Z,97844.68
2018-07-27T19:34:22.955Z,97851.56
2018-07-27T19:36:51.487Z,97853.44
2018-07-27T19:39:20.194Z,97858.30
2018-07-27T19:41:48.743Z,97857.70
2018-07-27T19:44:17.331Z,97859.28
2018-07-27T19:46:46.015Z,97862.06
2018-07-27T19:49:14.618Z,97857.08
2018-07-27T19:51:45.072Z,97865.20
2018-07-27T19:54:13.678Z,97869.95
2018-07-27T19:56:42.247Z,97871.27
2018-07-27T19:59:10.787Z,97869.63
2018-07-27T20:01:39.427Z,97872.38
2018-07-27T20:04:07.937Z,97879.67
2018-07-27T20:06:36.595Z,97881.87
2018-07-27T20:09:08.032Z,97885.52
2018-07-27T20:11:36.505Z,97886.63
2018-07-27T20:14:05.195Z,97892.61
2018-07-27T20:16:33.734Z,97887.80
2018-07-27T20:19:02.294Z,97892.08
2018-07-27T20:21:30.953Z,97896.72
2018-07-27T20:23:59.729Z,97900.30
2018-07-27T20:26:28.230Z,97903.42
2018-07-27T20:28:57.042Z,97904.87
2018-07-27T20:31:25.578Z,97899.78
2018-07-27T20:33:54.171Z,97906.36
2018-07-27T20:36:22.834Z,97905.33
2018-07-27T20:38:51.330Z,97909.47
2018-07-27T20:41:19.991Z,97908.98
2018-07-27T20:43:48.607Z,97905.22
2018-07-27T20:46:17.157Z,97897.64
2018-07-27T20:48:45.785Z,97902.48
2018-07-27T20:51:14.406Z,97895.98
2018-07-27T20:53:43.108Z,97900.13
2018-07-27T20:56:11.637Z,97899.38
2018-07-27T20:58:40.363Z,97903.52
2018-07-27T21:01:09.311Z,97898.04
2018-07-27T21:03:37.797Z,97891.34
2018-07-27T21:06:06.549Z,97897.11
2018-07-27T21:08:35.058Z,97900.00
2018-07-27T21:11:03.630Z,97904.18
2018-07-27T21:13:32.170Z,97900.62
2018-07-27T21:16:00.778Z,97893.98
2018-07-27T21:18:29.282Z,97892.05
2018-07-27T21:20:57.834Z,97895.92
2018-07-27T21:23:26.353Z,97898.25
2018-07-27T21:25:55.306Z,97897.54
2018-07-27T21:28:23.916Z,97893.91
2018-07-27T21:30:52.662Z,97896.94
2018-07-27T21:33:21.641Z,97899.93
2018-07-27T21:35:50.161Z,97895.16
2018-07-27T21:38:18.951Z,97892.59
2018-07-27T21:40:47.503Z,97894.80
2018-07-27T21:43:16.158Z,97887.52
2018-07-27T21:45:44.760Z,97892.64
2018-07-27T21:48:13.286Z,97895.80
2018-07-27T21:50:42.106Z,97889.02
2018-07-27T21:53:11.018Z,97878.30
2018-07-27T21:55:39.539Z,97879.33
2018-07-27T21:58:07.994Z,97878.20
2018-07-27T22:00:36.735Z,97879.14
2018-07-27T22:03:05.778Z,97874.61
2018-07-27T22:05:34.731Z,97875.81
2018-07-27T22:08:03.271Z,97879.23
2018-07-27T22:10:31.742Z,97877.80
2018-07-27T22:13:00.325Z,97872.01
2018-07-27T22:15:28.873Z,97877.80
2018-07-27T22:17:57.470Z,97875.89
2018-07-27T22:20:25.994Z,97880.20
2018-07-27T22:22:54.676Z,97888.65
2018-07-27T22:25:23.156Z,97884.23
2018-07-27T22:27:51.727Z,97891.38
2018-07-27T22:30:20.297Z,97890.77
2018-07-27T22:32:48.831Z,97880.06
2018-07-27T22:35:17.375Z,97885.38
2018-07-27T22:37:45.918Z,97882.03
2018-07-27T22:40:14.466Z,97879.48
2018-07-27T22:42:42.965Z,97871.69
2018-07-27T22:45:11.659Z,97871.82
2018-07-27T22:47:40.293Z,97867.87
2018-07-27T22:50:08.994Z,97869.73
2018-07-27T22:52:40.938Z,97876.12
2018-07-27T22:55:13.362Z,97877.53
2018-07-27T22:57:42.938Z,97885.52
2018-07-27T23:00:13.926Z,97891.99
2018-07-27T23:02:43.011Z,97884.22
2018-07-27T23:05:12.404Z,97887.55
2018-07-27T23:07:40.989Z,97891.02
2018-07-27T23:10:10.609Z,97885.39
2018-07-27T23:12:39.457Z,97883.26
2018-07-27T23:15:10.543Z,97886.70
2018-07-27T23:17:40.202Z,97877.38
2018-07-27T23:20:13.997Z,97878.86
2018-07-27T23:22:43.346Z,97879.56
2018-07-27T23:25:11.893Z,97880.35
2018-07-27T23:27:40.370Z,97881.97
2018-07-27T23:30:11.267Z,97875.35
2018-07-27T23:32:39.990Z,97871.46
2018-07-27T23:35:08.603Z,97880.06
2018-07-27T23:37:37.210Z,97865.27
2018-07-27T23:40:07.067Z,97871.80
2018-07-27T23:42:35.815Z,97865.27
2018-07-27T23:45:04.923Z,97861.84
2018-07-27T23:47:33.475Z,97858.04
2018-07-27T23:50:02.068Z,97855.02
2018-07-27T23:52:30.765Z,97854.07
2018-07-27T23:54:59.534Z,97846.80
2018-07-27T23:57:27.994Z,97850.52
2018-07-27T23:59:56.608Z,97845.77
